Time;durP1;ratioP1;P1;durP2;ratioP2;P2;SDS_P1;SDS_P2;PMS_P1;PMS_P2;Temp;Humidity;BMP_temperature;BMP_pressure;BME280_temperature;BME280_humidity;BME280_pressure;Samples;Min_cycle;Max_cycle;Signal;HPM_P1;HPM_P2
2021/01/24 00:00:53;;;;;;;2.97;1.40;;;6.90;72.20;;;;;;2601128;52;21003;-71
2021/01/24 00:03:21;;;;;;;4.35;2.20;;;6.80;72.10;;;;;;2601569;52;21257;-71
2021/01/24 00:05:51;;;;;;;5.32;2.25;;;6.90;72.30;;;;;;2588625;52;20997;-70
2021/01/24 00:08:17;;;;;;;3.83;1.95;;;6.90;72.90;;;;;;2584375;52;21503;-71
2021/01/24 00:10:44;;;;;;;4.32;1.90;;;6.90;72.20;;;;;;2575380;52;20975;-71
2021/01/24 00:13:10;;;;;;;3.90;1.70;;;6.90;72.20;;;;;;2592539;52;21831;-72
2021/01/24 00:15:36;;;;;;;4.85;2.25;;;6.90;72.20;;;;;;2606428;52;21519;-71
2021/01/24 00:18:03;;;;;;;3.47;1.70;;;6.90;72.30;;;;;;2583586;52;20958;-71
2021/01/24 00:20:29;;;;;;;7.03;2.80;;;6.90;72.20;;;;;;2355962;54;21021;-71
2021/01/24 00:22:56;;;;;;;5.25;2.53;;;6.90;72.20;;;;;;2595740;52;20967;-71
2021/01/24 00:25:22;;;;;;;3.83;1.70;;;6.90;72.10;;;;;;2579174;52;21056;-71
2021/01/24 00:27:48;;;;;;;4.62;1.60;;;6.90;72.20;;;;;;2584684;52;20954;-71
2021/01/24 00:30:18;;;;;;;3.40;1.25;;;6.90;72.20;;;;;;2587462;52;21038;-71
2021/01/24 00:32:46;;;;;;;2.55;1.10;;;6.90;72.50;;;;;;2569987;52;20965;-71
2021/01/24 00:35:13;;;;;;;2.30;1.00;;;6.90;72.10;;;;;;2589321;52;20927;-71
2021/01/24 00:37:39;;;;;;;3.42;1.10;;;7.00;72.20;;;;;;2362923;53;20997;-70
2021/01/24 00:40:07;;;;;;;1.80;0.80;;;6.90;71.90;;;;;;2607865;52;20995;-71
2021/01/24 00:42:36;;;;;;;2.28;1.00;;;7.00;72.00;;;;;;2601062;52;20905;-71
2021/01/24 00:45:08;;;;;;;5.03;1.20;;;6.90;71.70;;;;;;2594366;52;21427;-71
2021/01/24 00:47:37;;;;;;;2.83;0.80;;;6.90;71.70;;;;;;2346331;53;20978;-71
2021/01/24 00:50:06;;;;;;;2.03;0.88;;;6.90;71.70;;;;;;2585682;52;21024;-71
2021/01/24 00:52:33;;;;;;;1.62;0.65;;;6.90;71.80;;;;;;2595969;52;21037;-71
2021/01/24 00:55:00;;;;;;;2.25;0.80;;;6.90;71.80;;;;;;2593405;52;21456;-70
2021/01/24 00:57:28;;;;;;;4.72;0.90;;;6.90;71.70;;;;;;2611987;52;21072;-71
2021/01/24 00:59:55;;;;;;;2.62;0.80;;;6.80;71.50;;;;;;2622271;52;21622;-70
2021/01/24 01:02:21;;;;;;;1.75;0.60;;;6.90;71.50;;;;;;2372864;53;20930;-71
2021/01/24 01:04:48;;;;;;;2.08;0.77;;;6.80;71.50;;;;;;2369220;54;21005;-71
2021/01/24 01:07:14;;;;;;;2.87;0.80;;;6.80;71.40;;;;;;2346027;54;20968;-71
2021/01/24 01:09:41;;;;;;;3.60;0.90;;;6.80;71.40;;;;;;2368732;54;20963;-71
2021/01/24 01:12:07;;;;;;;2.33;0.90;;;6.70;71.30;;;;;;2587707;52;22091;-70
2021/01/24 01:14:34;;;;;;;2.08;0.80;;;6.70;71.20;;;;;;2597556;52;21076;-71
2021/01/24 01:17:00;;;;;;;1.55;0.75;;;6.70;71.20;;;;;;2589280;52;21003;-71
2021/01/24 01:19:27;;;;;;;1.35;0.65;;;6.70;71.20;;;;;;2355779;54;20953;-71
2021/01/24 01:21:53;;;;;;;1.67;0.70;;;6.60;71.20;;;;;;2344748;54;21791;-71
2021/01/24 01:24:20;;;;;;;1.67;0.62;;;6.70;71.20;;;;;;2349754;54;20959;-71
2021/01/24 01:26:48;;;;;;;1.87;0.80;;;6.60;71.10;;;;;;2577581;52;20911;-71
2021/01/24 01:29:15;;;;;;;1.50;0.50;;;6.60;71.10;;;;;;2348723;53;20978;-71
2021/01/24 01:31:42;;;;;;;1.85;0.62;;;6.60;71.00;;;;;;2593004;52;20951;-71
2021/01/24 01:34:08;;;;;;;1.30;0.52;;;6.60;71.00;;;;;;2348530;53;21534;-71
2021/01/24 01:36:34;;;;;;;1.05;0.50;;;6.60;71.00;;;;;;2347989;54;21027;-71
2021/01/24 01:39:01;;;;;;;0.90;0.40;;;6.60;70.90;;;;;;2596298;52;20939;-71
2021/01/24 01:41:31;;;;;;;1.23;0.50;;;6.60;70.90;;;;;;2614713;52;20906;-71
2021/01/24 01:43:57;;;;;;;0.95;0.50;;;6.60;70.90;;;;;;2592047;52;20926;-70
2021/01/24 01:46:25;;;;;;;1.33;0.60;;;6.60;71.00;;;;;;2621432;52;21463;-70
2021/01/24 01:48:55;;;;;;;0.82;0.50;;;6.50;70.70;;;;;;2621322;52;20931;-71
2021/01/24 01:51:21;;;;;;;1.23;0.60;;;6.50;70.60;;;;;;2610810;52;21043;-71
2021/01/24 01:53:49;;;;;;;1.10;0.50;;;6.50;70.70;;;;;;2599574;52;20950;-71
2021/01/24 01:56:16;;;;;;;1.10;0.60;;;6.50;70.60;;;;;;2588392;52;21864;-71
2021/01/24 01:58:42;;;;;;;1.20;0.60;;;6.50;70.50;;;;;;2584837;52;21499;-71
2021/01/24 02:01:41;;;;;;;0.70;0.45;;;6.50;70.50;;;;;;2600273;52;21738;-71
2021/01/24 02:04:16;;;;;;;1.98;0.68;;;6.50;70.50;;;;;;2606399;52;21269;-71
2021/01/24 02:07:09;;;;;;;1.48;0.70;;;6.40;70.30;;;;;;2578791;52;20914;-70
2021/01/24 02:09:51;;;;;;;1.70;0.70;;;6.40;70.20;;;;;;2584044;52;21452;-70
2021/01/24 02:12:35;;;;;;;1.50;0.73;;;6.40;70.10;;;;;;2606163;52;21003;-71
2021/01/24 02:15:04;;;;;;;1.55;0.60;;;6.40;70.10;;;;;;2357035;54;21563;-70
2021/01/24 02:17:40;;;;;;;5.00;0.93;;;6.40;70.10;;;;;;2586143;52;21073;-70
2021/01/24 02:21:36;;;;;;;2.53;0.85;;;6.30;69.80;;;;;;2592015;52;20955;-71
2021/01/24 02:24:04;;;;;;;2.03;0.80;;;6.30;69.10;;;;;;2364108;53;21043;-70
2021/01/24 02:30:11;;;;;;;1.58;0.70;;;6.30;69.50;;;;;;2598205;52;20913;-71
2021/01/24 02:32:38;;;;;;;2.87;1.20;;;6.20;69.20;;;;;;2364747;54;21427;-71
2021/01/24 02:35:04;;;;;;;2.28;1.08;;;6.20;69.30;;;;;;2587187;52;20907;-71
2021/01/24 02:37:31;;;;;;;2.80;1.30;;;6.10;69.20;;;;;;2349694;54;20939;-70
2021/01/24 02:39:57;;;;;;;2.95;1.37;;;6.00;69.20;;;;;;2576383;52;20970;-70
2021/01/24 02:42:23;;;;;;;3.40;1.50;;;6.00;69.20;;;;;;2367331;53;22035;-70
2021/01/24 02:44:50;;;;;;;2.80;1.40;;;6.00;69.20;;;;;;2620394;52;20997;-70
2021/01/24 02:47:16;;;;;;;3.53;1.40;;;6.00;69.30;;;;;;2357939;54;21557;-71
2021/01/24 02:49:45;;;;;;;3.95;1.58;;;5.90;69.10;;;;;;2598482;52;20947;-70
2021/01/24 02:52:13;;;;;;;2.60;1.30;;;5.90;69.10;;;;;;2590691;52;21303;-70
2021/01/24 02:54:39;;;;;;;3.42;1.62;;;5.90;69.10;;;;;;2590126;52;21485;-71
2021/01/24 02:57:06;;;;;;;3.62;1.70;;;5.90;69.10;;;;;;2332829;55;21021;-70
2021/01/24 02:59:33;;;;;;;3.30;1.50;;;5.80;68.70;;;;;;2360694;54;20940;-70
2021/01/24 03:01:59;;;;;;;3.75;1.70;;;5.80;69.00;;;;;;2349547;53;20955;-70
2021/01/24 03:04:25;;;;;;;3.55;1.60;;;5.80;69.10;;;;;;2609874;52;21046;-70
2021/01/24 03:06:52;;;;;;;3.40;1.62;;;5.80;69.00;;;;;;2352038;53;21058;-70
2021/01/24 03:09:18;;;;;;;3.65;1.48;;;5.80;69.00;;;;;;2620438;52;20938;-70
2021/01/24 03:11:46;;;;;;;2.70;1.60;;;5.80;69.10;;;;;;2624001;52;21022;-70
2021/01/24 03:14:19;;;;;;;2.80;1.25;;;5.80;69.10;;;;;;2607358;52;21491;-70
2021/01/24 03:16:47;;;;;;;3.00;1.37;;;5.80;68.70;;;;;;2596676;52;20914;-71
2021/01/24 03:19:14;;;;;;;3.35;1.30;;;5.70;68.90;;;;;;2600234;52;20997;-70
2021/01/24 03:21:40;;;;;;;2.40;1.30;;;5.70;68.90;;;;;;2620496;52;21023;-70
2021/01/24 03:24:07;;;;;;;2.97;1.30;;;5.70;69.00;;;;;;2600512;52;20988;-70
2021/01/24 03:26:33;;;;;;;2.97;1.50;;;5.70;69.50;;;;;;2593479;52;20944;-70
2021/01/24 03:29:00;;;;;;;3.75;1.90;;;5.70;68.80;;;;;;2354875;54;21496;-70
2021/01/24 03:31:26;;;;;;;4.53;1.60;;;5.70;68.60;;;;;;2361091;54;20986;-70
2021/01/24 03:33:53;;;;;;;3.70;1.70;;;5.60;68.50;;;;;;2624646;52;21089;-70
2021/01/24 03:36:19;;;;;;;3.70;1.70;;;5.60;68.40;;;;;;2602832;52;20971;-69
2021/01/24 03:38:46;;;;;;;4.93;2.00;;;5.60;68.10;;;;;;2591681;52;21020;-70
2021/01/24 03:41:12;;;;;;;4.28;2.20;;;5.50;68.10;;;;;;2357882;53;21022;-70
2021/01/24 03:43:38;;;;;;;3.55;1.60;;;5.50;68.00;;;;;;2589962;52;20981;-70
2021/01/24 03:46:05;;;;;;;3.90;1.83;;;5.50;68.20;;;;;;2582533;52;20993;-69
2021/01/24 03:48:32;;;;;;;5.25;1.90;;;5.40;68.10;;;;;;2587912;52;20954;-70
2021/01/24 03:50:58;;;;;;;5.40;1.95;;;5.40;68.10;;;;;;2585007;52;21059;-70
2021/01/24 03:53:25;;;;;;;4.55;1.98;;;5.40;68.00;;;;;;2588356;52;20946;-70
2021/01/24 03:55:52;;;;;;;4.50;2.03;;;5.40;68.10;;;;;;2349991;53;21458;-70
2021/01/24 03:58:18;;;;;;;5.65;2.20;;;5.40;68.10;;;;;;2597007;52;21468;-69
2021/01/24 04:00:44;;;;;;;4.40;1.90;;;5.40;68.30;;;;;;2593864;52;20978;-70
2021/01/24 04:03:10;;;;;;;3.55;1.70;;;5.40;69.10;;;;;;2592699;52;20991;-70
2021/01/24 04:05:36;;;;;;;4.15;1.92;;;5.40;68.40;;;;;;2361129;54;21092;-70
2021/01/24 04:08:03;;;;;;;4.40;2.12;;;5.30;68.20;;;;;;2593806;52;20929;-70
2021/01/24 04:10:32;;;;;;;4.03;2.20;;;5.30;68.20;;;;;;2605522;52;20947;-70
2021/01/24 04:12:58;;;;;;;3.90;1.87;;;5.30;68.60;;;;;;2592300;52;21051;-70
2021/01/24 04:15:25;;;;;;;3.47;1.65;;;5.30;68.10;;;;;;2596024;52;20893;-70
2021/01/24 04:17:51;;;;;;;4.15;1.98;;;5.30;68.20;;;;;;2364625;54;21035;-69
2021/01/24 04:20:19;;;;;;;4.07;2.12;;;5.30;68.20;;;;;;2592990;52;20991;-70
2021/01/24 04:22:46;;;;;;;4.45;1.90;;;5.20;68.30;;;;;;2598823;52;20906;-70
2021/01/24 04:25:15;;;;;;;3.62;1.90;;;5.20;68.30;;;;;;2592544;52;21053;-70
2021/01/24 04:27:42;;;;;;;3.85;2.10;;;5.20;68.40;;;;;;2608805;52;21500;-70
2021/01/24 04:30:09;;;;;;;5.97;2.53;;;5.20;68.40;;;;;;2360522;54;20954;-69
2021/01/24 04:32:35;;;;;;;6.90;2.35;;;5.20;68.40;;;;;;2586315;52;21509;-69
2021/01/24 04:35:03;;;;;;;6.10;2.15;;;5.20;68.30;;;;;;2589927;52;20943;-69
2021/01/24 04:37:29;;;;;;;4.28;2.53;;;5.20;68.30;;;;;;2355959;53;21030;-69
2021/01/24 04:39:57;;;;;;;5.55;2.35;;;5.20;68.00;;;;;;2615013;52;20974;-69
2021/01/24 04:42:24;;;;;;;4.35;2.20;;;5.20;68.20;;;;;;2613720;52;21012;-69
2021/01/24 04:44:50;;;;;;;3.90;2.10;;;5.20;68.00;;;;;;2601789;52;20978;-69
2021/01/24 04:47:16;;;;;;;4.50;2.37;;;5.20;68.00;;;;;;2591970;52;21009;-70
2021/01/24 04:49:42;;;;;;;6.07;2.47;;;5.10;67.90;;;;;;2594584;52;20911;-69
2021/01/24 04:52:09;;;;;;;4.65;2.25;;;5.10;68.00;;;;;;2607442;52;20994;-69
2021/01/24 04:54:35;;;;;;;5.35;2.42;;;5.10;68.00;;;;;;2585780;52;21513;-69
2021/01/24 04:57:01;;;;;;;5.35;2.60;;;5.10;68.20;;;;;;2592979;52;21027;-69
2021/01/24 04:59:28;;;;;;;4.97;2.00;;;5.10;68.40;;;;;;2570394;52;21466;-69
2021/01/24 05:01:54;;;;;;;5.07;2.10;;;5.10;68.40;;;;;;2616179;52;20977;-70
2021/01/24 05:04:21;;;;;;;4.70;2.53;;;5.10;68.50;;;;;;2598394;52;21002;-69
2021/01/24 05:06:47;;;;;;;5.07;2.53;;;5.10;68.60;;;;;;2621775;52;21092;-69
2021/01/24 05:09:17;;;;;;;6.18;2.40;;;5.10;68.60;;;;;;2599635;52;21015;-69
2021/01/24 05:11:52;;;;;;;4.15;2.20;;;5.10;69.20;;;;;;2612448;52;20945;-69
2021/01/24 05:14:22;;;;;;;6.70;2.10;;;5.10;69.10;;;;;;2622640;52;21002;-69
2021/01/24 05:16:49;;;;;;;4.40;2.60;;;5.10;68.30;;;;;;2599602;52;20951;-69
2021/01/24 05:19:16;;;;;;;4.55;2.12;;;5.10;68.50;;;;;;2350155;54;20959;-69
2021/01/24 05:21:43;;;;;;;4.70;2.22;;;5.10;68.20;;;;;;2614255;52;20989;-69
2021/01/24 05:24:13;;;;;;;7.57;2.40;;;5.10;68.30;;;;;;2592276;52;20975;-68
2021/01/24 05:26:44;;;;;;;4.50;2.37;;;5.10;68.20;;;;;;2616746;52;20954;-69
2021/01/24 05:29:24;;;;;;;4.20;2.35;;;5.10;67.80;;;;;;2574704;53;21093;-69
2021/01/24 05:31:51;;;;;;;4.40;2.00;;;5.10;67.50;;;;;;2367492;53;20952;-69
2021/01/24 05:34:25;;;;;;;5.70;2.10;;;5.10;67.70;;;;;;2591817;52;20919;-69
2021/01/24 05:36:51;;;;;;;4.70;2.28;;;5.10;67.10;;;;;;2602227;52;21002;-68
2021/01/24 05:39:18;;;;;;;5.55;2.58;;;5.10;67.20;;;;;;2360852;54;20971;-69
2021/01/24 05:41:48;;;;;;;6.93;2.10;;;5.00;67.30;;;;;;2573724;53;21857;-69
2021/01/24 05:44:15;;;;;;;6.68;1.90;;;5.00;67.10;;;;;;2605507;52;21832;-68
2021/01/24 05:46:44;;;;;;;5.12;1.95;;;5.00;67.50;;;;;;2594980;52;20983;-69
2021/01/24 05:49:12;;;;;;;3.95;1.70;;;5.00;67.70;;;;;;2622651;52;21443;-68
2021/01/24 05:51:39;;;;;;;5.43;1.90;;;5.00;67.80;;;;;;2600469;52;20979;-68
2021/01/24 05:54:05;;;;;;;4.07;1.52;;;5.00;67.80;;;;;;2582604;52;20919;-67
2021/01/24 05:56:32;;;;;;;4.18;1.70;;;5.00;67.70;;;;;;2349548;54;20951;-68
2021/01/24 05:59:02;;;;;;;4.78;1.80;;;5.00;67.70;;;;;;2352883;54;21455;-68
2021/01/24 06:01:30;;;;;;;5.10;1.90;;;5.10;67.80;;;;;;2551688;53;20975;-69
2021/01/24 06:03:58;;;;;;;3.17;1.73;;;5.00;67.60;;;;;;2585068;52;21476;-69
2021/01/24 06:06:24;;;;;;;7.07;1.98;;;5.10;67.60;;;;;;2356281;53;21006;-68
2021/01/24 06:08:50;;;;;;;5.22;1.95;;;5.10;67.80;;;;;;2357045;53;20937;-69
2021/01/24 06:11:17;;;;;;;5.20;1.70;;;5.10;67.80;;;;;;2607073;52;20970;-68
2021/01/24 06:13:45;;;;;;;4.07;1.90;;;5.10;67.60;;;;;;2605949;52;21455;-68
2021/01/24 06:16:18;;;;;;;5.62;1.98;;;5.10;67.60;;;;;;2351371;54;21381;-68
2021/01/24 06:18:54;;;;;;;3.33;1.52;;;5.10;67.50;;;;;;2581560;52;21006;-68
2021/01/24 06:21:55;;;;;;;4.50;1.90;;;5.10;67.60;;;;;;2356005;54;21043;-68
2021/01/24 06:24:31;;;;;;;3.47;1.65;;;5.10;67.80;;;;;;2595584;52;20975;-68
2021/01/24 06:26:59;;;;;;;4.07;1.98;;;5.10;67.80;;;;;;2354904;53;21051;-68
2021/01/24 06:29:26;;;;;;;4.45;1.58;;;5.10;67.80;;;;;;2359501;53;20941;-69
2021/01/24 06:31:53;;;;;;;3.50;1.90;;;5.10;67.80;;;;;;2602069;52;21501;-68
2021/01/24 06:34:44;;;;;;;4.43;1.87;;;5.10;67.60;;;;;;2580847;52;20968;-68
2021/01/24 06:37:14;;;;;;;4.20;1.75;;;5.10;67.30;;;;;;2608946;52;20928;-68
2021/01/24 06:40:00;;;;;;;4.75;1.50;;;5.10;67.50;;;;;;2591420;52;21456;-68
2021/01/24 06:43:59;;;;;;;3.62;1.60;;;5.10;67.10;;;;;;2328933;53;1751876;-69
2021/01/24 06:46:43;;;;;;;4.22;1.60;;;5.20;66.70;;;;;;2589318;52;20939;-68
2021/01/24 06:49:11;;;;;;;4.37;1.60;;;5.20;67.30;;;;;;2589468;53;21000;-69
2021/01/24 06:51:42;;;;;;;3.42;1.73;;;5.20;67.50;;;;;;2581290;52;21028;-68
2021/01/24 06:54:42;;;;;;;4.43;1.60;;;5.20;67.60;;;;;;2583725;53;20965;-69
2021/01/24 06:57:08;;;;;;;4.10;1.48;;;5.20;67.80;;;;;;2593412;52;20949;-69
2021/01/24 06:59:38;;;;;;;3.90;1.73;;;5.20;67.80;;;;;;2579917;53;21989;-68
2021/01/24 07:02:24;;;;;;;4.47;1.90;;;5.20;67.50;;;;;;2307866;55;20986;-68
2021/01/24 07:05:51;;;;;;;4.43;1.90;;;5.20;67.30;;;;;;2345072;53;20982;-68
2021/01/24 07:08:31;;;;;;;5.57;2.22;;;5.20;66.30;;;;;;2346033;53;20946;-68
2021/01/24 07:10:57;;;;;;;8.30;3.15;;;5.20;66.80;;;;;;2342244;53;21006;-69
2021/01/24 07:14:20;;;;;;;5.12;2.47;;;5.20;67.40;;;;;;2586155;53;20976;-68
2021/01/24 07:16:46;;;;;;;4.95;2.10;;;5.20;66.80;;;;;;2586457;53;20943;-67
2021/01/24 07:19:18;;;;;;;5.80;2.22;;;5.20;67.00;;;;;;2554996;53;20966;-68
2021/01/24 07:21:47;;;;;;;5.47;1.65;;;5.20;66.80;;;;;;2535081;54;20955;-68
2021/01/24 07:24:14;;;;;;;4.70;1.95;;;5.10;67.10;;;;;;2586143;52;21046;-67
2021/01/24 07:26:40;;;;;;;4.10;2.15;;;5.10;66.70;;;;;;2600635;52;20913;-68
2021/01/24 07:29:07;;;;;;;3.78;1.87;;;5.10;66.50;;;;;;2579727;52;21070;-68
2021/01/24 07:31:33;;;;;;;4.93;2.00;;;5.10;66.30;;;;;;2554264;52;20976;-68
2021/01/24 07:34:00;;;;;;;4.25;1.87;;;5.10;67.10;;;;;;2558775;53;21003;-67
2021/01/24 07:36:26;;;;;;;4.15;1.50;;;5.10;66.40;;;;;;2339077;53;21007;-67
2021/01/24 07:38:52;;;;;;;5.35;2.30;;;5.10;66.60;;;;;;2339450;53;20964;-68
2021/01/24 07:41:19;;;;;;;2.78;1.60;;;5.10;66.30;;;;;;2313345;54;21654;-68
2021/01/24 07:43:51;;;;;;;3.72;1.65;;;5.10;66.50;;;;;;2315555;53;21061;-68
2021/01/24 07:46:17;;;;;;;4.80;1.83;;;5.20;66.60;;;;;;2319419;53;20975;-67
2021/01/24 07:48:44;;;;;;;5.35;2.60;;;5.20;66.70;;;;;;2577478;53;21037;-67
2021/01/24 07:51:10;;;;;;;4.80;2.00;;;5.10;66.40;;;;;;2565611;53;20959;-67
2021/01/24 07:53:36;;;;;;;5.25;2.00;;;5.20;66.50;;;;;;2579326;52;20961;-68
2021/01/24 07:56:03;;;;;;;4.50;1.83;;;5.20;66.90;;;;;;2317038;54;20951;-68
2021/01/24 07:58:29;;;;;;;4.20;1.60;;;5.20;66.70;;;;;;2603507;52;20966;-68
2021/01/24 08:00:56;;;;;;;5.05;1.77;;;5.20;67.00;;;;;;2556104;52;21003;-68
2021/01/24 08:03:26;;;;;;;4.18;1.80;;;5.20;67.00;;;;;;2342042;53;20965;-67
2021/01/24 08:05:53;;;;;;;4.75;1.90;;;5.20;67.20;;;;;;2550827;53;20990;-68
2021/01/24 08:08:20;;;;;;;4.35;1.80;;;5.20;67.30;;;;;;2594865;52;21390;-68
2021/01/24 08:10:46;;;;;;;5.00;2.03;;;5.20;67.30;;;;;;2356445;54;21153;-68
2021/01/24 08:13:14;;;;;;;4.90;2.03;;;5.30;67.10;;;;;;2362052;54;20997;-68
2021/01/24 08:15:40;;;;;;;5.65;1.80;;;5.30;67.30;;;;;;2585425;52;20948;-67
2021/01/24 08:18:07;;;;;;;3.95;1.60;;;5.30;67.20;;;;;;2598085;52;21017;-68
2021/01/24 08:20:33;;;;;;;5.50;2.25;;;5.30;67.10;;;;;;2594846;52;21023;-67
2021/01/24 08:22:59;;;;;;;3.65;1.60;;;5.30;67.20;;;;;;2365186;54;21069;-67
2021/01/24 08:25:26;;;;;;;4.00;1.90;;;5.40;67.30;;;;;;2594676;52;20933;-67
2021/01/24 08:27:53;;;;;;;7.43;1.98;;;5.40;66.60;;;;;;2593350;52;20925;-67
2021/01/24 08:30:20;;;;;;;4.43;1.70;;;5.40;67.70;;;;;;2588478;52;21018;-68
2021/01/24 08:32:49;;;;;;;5.15;2.10;;;5.40;66.40;;;;;;2355515;53;20961;-68
2021/01/24 08:35:17;;;;;;;3.62;1.90;;;5.40;66.70;;;;;;2357502;53;20991;-68
2021/01/24 08:37:44;;;;;;;3.55;1.70;;;5.50;67.00;;;;;;2600756;52;20898;-68
2021/01/24 08:40:11;;;;;;;4.45;1.90;;;5.50;66.80;;;;;;2604521;52;20962;-67
2021/01/24 08:42:47;;;;;;;3.87;1.62;;;5.50;67.50;;;;;;2610690;52;20946;-67
2021/01/24 08:45:20;;;;;;;4.97;2.10;;;5.50;66.70;;;;;;2619202;52;22528;-67
2021/01/24 08:47:51;;;;;;;4.05;1.83;;;5.50;65.90;;;;;;2352340;53;21534;-67
2021/01/24 08:50:18;;;;;;;5.05;1.67;;;5.50;66.50;;;;;;2607164;52;20983;-68
2021/01/24 08:52:51;;;;;;;5.45;2.00;;;5.60;67.00;;;;;;2600654;52;20969;-67
2021/01/24 08:55:18;;;;;;;8.10;2.00;;;5.60;67.10;;;;;;2578074;52;21064;-68
2021/01/24 08:57:44;;;;;;;5.97;1.77;;;5.60;67.40;;;;;;2351835;53;20949;-68
2021/01/24 09:00:11;;;;;;;3.03;1.40;;;5.60;67.50;;;;;;2353890;53;21919;-67
2021/01/24 09:02:38;;;;;;;7.35;1.70;;;5.70;67.50;;;;;;2602632;52;20993;-68
2021/01/24 09:05:14;;;;;;;4.43;1.70;;;5.70;67.50;;;;;;2589837;52;20999;-67
2021/01/24 09:07:47;;;;;;;5.95;2.87;;;5.70;67.50;;;;;;2622359;52;20967;-68
2021/01/24 09:10:27;;;;;;;5.47;2.37;;;5.80;67.40;;;;;;2594819;52;20961;-68
2021/01/24 09:13:02;;;;;;;7.87;1.73;;;5.80;67.20;;;;;;2346285;54;20987;-68
2021/01/24 09:15:32;;;;;;;11.25;1.90;;;5.80;67.40;;;;;;2560552;53;21044;-67
2021/01/24 09:17:59;;;;;;;6.75;2.65;;;5.80;67.30;;;;;;2322468;57;21237;-67
2021/01/24 09:20:26;;;;;;;5.60;2.45;;;5.90;67.30;;;;;;2319496;54;21037;-67
2021/01/24 09:22:53;;;;;;;5.65;1.90;;;5.90;67.40;;;;;;2317974;54;21041;-68
2021/01/24 09:25:20;;;;;;;3.67;1.50;;;5.90;67.20;;;;;;2560884;53;21115;-68
2021/01/24 09:27:47;;;;;;;4.93;2.55;;;5.90;67.10;;;;;;2560879;53;21046;-68
2021/01/24 09:30:17;;;;;;;5.30;1.73;;;5.90;67.30;;;;;;2550948;53;21690;-68
2021/01/24 09:32:44;;;;;;;4.15;1.90;;;6.10;67.50;;;;;;2325181;54;21052;-68
2021/01/24 09:35:10;;;;;;;6.82;2.70;;;6.00;67.70;;;;;;2564538;52;21090;-68
2021/01/24 09:37:37;;;;;;;6.30;3.15;;;6.00;67.60;;;;;;2540603;52;21045;-68
2021/01/24 09:40:07;;;;;;;4.90;2.33;;;6.10;67.80;;;;;;2566763;52;20998;-68
2021/01/24 09:42:42;;;;;;;4.10;1.75;;;6.10;68.00;;;;;;2337127;54;20998;-68
2021/01/24 09:45:09;;;;;;;5.15;2.35;;;6.10;67.80;;;;;;2571972;52;20985;-67
2021/01/24 09:47:36;;;;;;;6.45;2.08;;;6.20;67.60;;;;;;2310651;53;20955;-69
2021/01/24 09:50:03;;;;;;;5.00;2.10;;;6.20;67.60;;;;;;2330747;53;20990;-68
2021/01/24 09:52:29;;;;;;;5.37;1.50;;;6.20;67.80;;;;;;2568956;52;20980;-68
2021/01/24 09:54:56;;;;;;;5.22;1.30;;;6.30;68.10;;;;;;2334460;54;21536;-68
2021/01/24 09:57:23;;;;;;;3.62;1.33;;;6.30;68.10;;;;;;2561193;53;21080;-68
2021/01/24 09:59:49;;;;;;;4.12;1.77;;;6.30;67.80;;;;;;2561070;52;21005;-68
2021/01/24 10:02:15;;;;;;;3.60;1.70;;;6.40;67.80;;;;;;2566484;52;21012;-68
2021/01/24 10:04:43;;;;;;;5.05;2.17;;;6.40;67.60;;;;;;2366925;53;21387;-68
2021/01/24 10:07:09;;;;;;;8.73;4.35;;;6.40;67.70;;;;;;2620697;52;20985;-68
2021/01/24 10:09:36;;;;;;;9.07;4.50;;;6.40;67.80;;;;;;2583279;52;20976;-68
2021/01/24 10:12:03;;;;;;;6.50;3.80;;;6.50;67.90;;;;;;2586809;52;21005;-68
2021/01/24 10:14:30;;;;;;;8.57;4.10;;;6.50;67.90;;;;;;2578668;52;20976;-68
2021/01/24 10:16:57;;;;;;;5.07;2.80;;;6.50;67.70;;;;;;2314852;54;20938;-67
2021/01/24 10:19:23;;;;;;;7.87;4.00;;;6.50;67.90;;;;;;2559028;53;22198;-68
2021/01/24 10:21:50;;;;;;;6.35;3.15;;;6.50;68.20;;;;;;2548199;53;21008;-68
2021/01/24 10:24:17;;;;;;;4.93;2.58;;;6.60;68.10;;;;;;2588724;52;20930;-68
2021/01/24 10:26:44;;;;;;;5.80;1.80;;;6.60;68.30;;;;;;2594652;52;21035;-68
2021/01/24 10:29:11;;;;;;;4.37;2.30;;;6.70;68.60;;;;;;2591208;52;21018;-68
2021/01/24 10:31:38;;;;;;;3.60;1.90;;;6.70;68.50;;;;;;2554677;53;21414;-68
2021/01/24 10:34:04;;;;;;;4.50;2.08;;;6.80;68.70;;;;;;2602795;52;21073;-68
2021/01/24 10:36:31;;;;;;;3.83;1.75;;;6.80;68.40;;;;;;2357414;53;21427;-68
2021/01/24 10:38:57;;;;;;;6.90;1.83;;;6.80;68.40;;;;;;2332405;53;21006;-68
2021/01/24 10:41:24;;;;;;;7.90;3.28;;;6.80;68.30;;;;;;2542598;53;21130;-68
2021/01/24 10:43:52;;;;;;;5.47;2.85;;;6.90;68.40;;;;;;2527173;53;21139;-68
2021/01/24 10:46:30;;;;;;;5.65;2.30;;;6.90;68.30;;;;;;2567422;52;20992;-68
2021/01/24 10:48:57;;;;;;;4.93;2.47;;;6.90;68.30;;;;;;2328429;53;21630;-67
2021/01/24 10:51:24;;;;;;;4.43;1.87;;;7.00;67.80;;;;;;2575926;52;22134;-68
2021/01/24 10:53:50;;;;;;;5.00;1.80;;;7.00;68.70;;;;;;2326597;54;21426;-68
2021/01/24 10:56:18;;;;;;;3.55;1.70;;;7.00;68.10;;;;;;2570036;52;20962;-67
2021/01/24 10:58:44;;;;;;;5.00;2.08;;;7.00;68.20;;;;;;2324061;54;20960;-67
2021/01/24 11:01:11;;;;;;;3.30;1.48;;;7.00;67.80;;;;;;2550166;53;21531;-67
2021/01/24 11:03:38;;;;;;;4.22;1.50;;;7.10;68.20;;;;;;2334630;54;20967;-68
2021/01/24 11:06:05;;;;;;;4.80;2.22;;;7.10;67.80;;;;;;2578699;52;20976;-68
2021/01/24 11:08:32;;;;;;;9.07;4.43;;;7.10;67.90;;;;;;2563514;52;21021;-68
2021/01/24 11:10:58;;;;;;;13.07;6.72;;;7.10;66.70;;;;;;2577398;52;21073;-68
2021/01/24 11:13:24;;;;;;;10.00;5.87;;;7.20;67.80;;;;;;2591775;52;21100;-68
2021/01/24 11:15:51;;;;;;;5.90;2.78;;;7.20;68.00;;;;;;2357998;53;20970;-68
2021/01/24 11:18:18;;;;;;;27.48;10.98;;;7.30;67.90;;;;;;2345304;53;20994;-68
2021/01/24 11:20:46;;;;;;;12.35;5.70;;;7.30;68.30;;;;;;2343932;54;21133;-67
2021/01/24 11:23:13;;;;;;;11.18;4.32;;;7.40;68.50;;;;;;2350821;53;21027;-68
2021/01/24 11:25:41;;;;;;;27.42;11.18;;;7.40;69.10;;;;;;2345156;53;21567;-68
2021/01/24 11:28:08;;;;;;;33.38;14.23;;;7.60;70.00;;;;;;2572777;52;20990;-68
2021/01/24 11:30:35;;;;;;;11.38;5.93;;;7.70;70.40;;;;;;2570601;52;22334;-68
2021/01/24 11:33:07;;;;;;;6.72;3.17;;;7.80;69.90;;;;;;2341515;53;21075;-68
2021/01/24 11:35:37;;;;;;;5.65;2.85;;;7.90;68.80;;;;;;2531511;53;20960;-68
2021/01/24 11:38:05;;;;;;;4.60;1.90;;;7.90;68.40;;;;;;2297682;54;20999;-68
2021/01/24 11:40:31;;;;;;;3.50;1.80;;;7.90;68.20;;;;;;2334234;54;20964;-67
2021/01/24 11:42:57;;;;;;;2.83;1.40;;;7.90;68.10;;;;;;2346359;53;21015;-68
2021/01/24 11:45:24;;;;;;;5.20;1.80;;;7.90;68.30;;;;;;2345889;53;20979;-68
2021/01/24 11:47:51;;;;;;;2.80;1.42;;;7.90;68.00;;;;;;2347615;53;21431;-67
2021/01/24 11:50:17;;;;;;;2.80;1.20;;;8.00;68.30;;;;;;2603034;52;20987;-68
2021/01/24 11:52:43;;;;;;;5.15;1.40;;;8.00;68.20;;;;;;2584182;52;21050;-67
2021/01/24 11:55:11;;;;;;;3.10;1.40;;;8.00;68.10;;;;;;2332881;53;21104;-68
2021/01/24 11:57:37;;;;;;;2.85;1.42;;;8.00;68.00;;;;;;2335171;53;20968;-69
2021/01/24 12:00:05;;;;;;;3.45;1.48;;;8.00;68.70;;;;;;2578673;52;20997;-66
2021/01/24 12:02:31;;;;;;;2.97;1.40;;;8.10;69.80;;;;;;2553570;53;20980;-68
2021/01/24 12:04:59;;;;;;;13.20;6.60;;;8.20;70.30;;;;;;2555884;53;21502;-68
2021/01/24 12:07:25;;;;;;;13.07;6.43;;;8.30;69.70;;;;;;2317983;54;21367;-68
2021/01/24 12:09:55;;;;;;;6.95;3.50;;;8.40;69.40;;;;;;2553620;53;20951;-68
2021/01/24 12:12:21;;;;;;;4.35;2.03;;;8.50;69.50;;;;;;2319623;53;21838;-68
2021/01/24 12:14:47;;;;;;;3.62;1.70;;;8.60;70.00;;;;;;2576339;52;21009;-68
2021/01/24 12:17:18;;;;;;;5.40;1.87;;;8.70;70.00;;;;;;2585089;52;21541;-68
2021/01/24 12:19:46;;;;;;;3.50;1.40;;;8.80;69.70;;;;;;2356752;53;21030;-68
2021/01/24 12:22:13;;;;;;;3.05;1.20;;;8.90;68.70;;;;;;2560366;52;21201;-68
2021/01/24 12:24:40;;;;;;;3.60;1.37;;;8.90;68.40;;;;;;2576813;52;21066;-68
2021/01/24 12:27:06;;;;;;;3.37;1.42;;;8.90;67.80;;;;;;2339488;53;20987;-68
2021/01/24 12:29:33;;;;;;;2.85;1.20;;;9.00;67.70;;;;;;2583575;52;21014;-68
2021/01/24 12:31:59;;;;;;;3.25;1.27;;;9.10;67.20;;;;;;2575935;52;20979;-68
2021/01/24 12:34:26;;;;;;;3.87;1.62;;;9.00;67.80;;;;;;2323686;54;21420;-68
2021/01/24 12:36:52;;;;;;;5.80;1.75;;;9.00;68.00;;;;;;2571592;52;21022;-68
2021/01/24 12:39:18;;;;;;;3.10;1.40;;;9.10;67.70;;;;;;2314961;54;21091;-67
2021/01/24 12:41:45;;;;;;;4.28;1.70;;;9.10;67.10;;;;;;2567066;53;21103;-68
2021/01/24 12:44:13;;;;;;;5.45;1.60;;;9.10;67.00;;;;;;2560699;53;21024;-67
2021/01/24 12:46:39;;;;;;;5.93;2.05;;;9.20;67.60;;;;;;2342707;53;20937;-67
2021/01/24 12:49:06;;;;;;;6.10;1.92;;;9.20;67.60;;;;;;2555570;52;20965;-68
2021/01/24 12:51:32;;;;;;;4.70;1.90;;;9.30;67.10;;;;;;2345573;54;21057;-67
2021/01/24 12:53:58;;;;;;;5.05;1.58;;;9.30;66.40;;;;;;2564820;53;20996;-67
2021/01/24 12:56:25;;;;;;;3.75;1.55;;;9.20;65.90;;;;;;2330740;53;20959;-67
2021/01/24 12:58:57;;;;;;;4.40;1.70;;;9.20;66.30;;;;;;2335641;54;20971;-67
2021/01/24 13:01:23;;;;;;;4.05;1.40;;;9.20;65.70;;;;;;2586082;52;22327;-67
2021/01/24 13:03:50;;;;;;;7.18;2.20;;;9.10;65.80;;;;;;2586339;52;21076;-67
2021/01/24 13:06:16;;;;;;;3.75;1.83;;;9.10;65.40;;;;;;2599620;52;21085;-67
2021/01/24 13:08:42;;;;;;;4.30;1.90;;;9.10;65.60;;;;;;2362235;53;21448;-67